Aviation Digital Data Service (ADDS)

Output produced by METARs form (0211 UTC 24 November 2017)
found at http://www.aviationweather.gov/adds/metars/
 
EFLP 240150Z AUTO 14007KT 090V190 5000 OVC003 M01/M01 Q1008
EFLP 240120Z AUTO 14007KT 100V190 2200 BR OVC004 M02/M02 Q1008
EFLP 240050Z AUTO 14009KT 060V190 3200 BR OVC005 M02/M02 Q1008
EFLP 240020Z AUTO 13009KT 090V190 5000 BR OVC005 M02/M02 Q1008
EFLP 232350Z AUTO 13008KT 070V180 7000 OVC007 M02/M03 Q1009
EFLP 232320Z AUTO 14010KT 060V180 9999 OVC007 M02/M03 Q1009
EFLP 232250Z AUTO 14008G18KT 070V180 9999 OVC007 M02/M03 Q1010
EFLP 232220Z AUTO 14009KT 090V190 9999 OVC007 M02/M03 Q1010
EFLP 232150Z AUTO 14009KT 090V190 9999 OVC006 M02/M03 Q1010
EFLP 232120Z AUTO 14008KT 090V200 9999 OVC006 M03/M03 Q1010
EFLP 232050Z AUTO 13009KT 090V180 9999 OVC005 M03/M03 Q1011
EFLP 232020Z AUTO 13009KT 090V190 7000 OVC005 M03/M03 Q1011
EFLP 231950Z AUTO 14009KT 090V190 5000 OVC005 M03/M04 Q1011
EFLP 231920Z AUTO 13010KT 080V180 6000 OVC006 M03/M04 Q1011
EFLP 231850Z AUTO 13009KT 060V180 8000 OVC008 M03/M04 Q1011
EFLP 231820Z AUTO 13008KT 080V200 9999 OVC008 M03/M04 Q1012
EFLP 231750Z AUTO 13009KT 070V210 9999 OVC008 M03/M05 Q1012
EFLP 231720Z AUTO 13009KT 090V180 9999 OVC008 M04/M05 Q1012
EFLP 231650Z AUTO 12009KT 080V170 9999 OVC008 M04/M05 Q1012
EFLP 231620Z AUTO 12011KT 080V150 9999 -SN BKN008 OVC034 M04/M05 Q1012
EFLP 231550Z AUTO 12011KT 090V170 9999 -SN BKN008 OVC042 M04/M05 Q1013
EFLP 231520Z AUTO 12010KT 060V200 7000 -SN BKN008 OVC050 M04/M05 Q1013
EFLP 231450Z AUTO 12010KT 070V170 4600 -SN SCT006 BKN020 BKN056 M04/M05 Q1013
EFLP 231420Z AUTO 12009KT 080V160 2000 SN FEW005 OVC017 M04/M05 Q1014
EFLP 231350Z AUTO 12009KT 080V160 1600 SN OVC012 M04/M05 Q1014
EFLP 231320Z AUTO 12009KT 070V170 9999 -SG OVC011 M04/M06 Q1015
EFLP 231250Z AUTO 12009KT 050V150 9999 OVC011 M04/M06 Q1015
EFLP 231220Z AUTO 11008KT 050V160 9999 OVC011 M04/M06 Q1015
EFLP 231150Z AUTO 11009KT 060V150 9999 OVC011 M04/M06 Q1015
EFLP 231120Z AUTO 11008KT 060V160 9999 OVC011 M05/M06 Q1016
EFLP 231050Z AUTO 11008KT 050V160 9999 OVC011 M05/M06 Q1016
EFLP 231020Z AUTO 11008KT 080V150 9999 OVC010 M05/M06 Q1017
EFLP 230950Z AUTO 12008KT 070V160 9999 OVC012 M05/M06 Q1017
EFLP 230920Z AUTO 11008KT 060V150 9999 OVC012 M05/M06 Q1017
EFLP 230850Z AUTO 11009KT 040V160 9999 OVC010 M05/M06 Q1018
EFLP 230820Z AUTO 11007KT 070V140 9999 OVC011 M05/M06 Q1018
EFLP 230750Z AUTO 11007KT 060V150 9999 OVC012 M05/M07 Q1018
EFLP 230720Z 12007KT 070V160 9999 OVC010 M05/M07 Q1018
EFLP 230650Z 11007KT 060V190 9999 OVC012 M05/M07 Q1018
EFLP 230620Z 11007KT 060V150 9999 OVC012 M05/M07 Q1018
EFLP 230550Z 11007KT 070V150 9999 OVC010 M05/M07 Q1018
EFLP 230520Z 11007KT 060V160 9999 OVC010 M05/M06 Q1018
EFLP 230450Z AUTO 11006KT 070V150 9999 OVC010 M05/M06 Q1018
EFLP 230420Z AUTO 10006KT 040V150 9999 OVC013 M05/M07 Q1018
EFLP 230350Z AUTO 10005KT 060V140 9000 BKN016 M06/M07 Q1019
EFLP 230320Z AUTO 09005KT 050V130 9999 BKN016 M06/M07 Q1019
EFLP 230250Z AUTO 08005KT 050V110 9999 BKN017 M06/M07 Q1019
EFLP 230220Z AUTO 08004KT 050V130 9999 BKN018 M06/M07 Q1019
EFLP 230150Z AUTO 08004KT 9999 BKN018 M06/M07 Q1019
EFLP 230120Z AUTO 08004KT 050V110 9999 BKN018 M06/M07 Q1019
EFLP 230050Z AUTO 07005KT 9999 OVC017 M06/M07 Q1019
EFLP 230020Z AUTO 08003KT 9999 OVC018 M06/M08 Q1020
EFLP 222350Z AUTO 07004KT 9999 OVC017 M06/M08 Q1019
EFLP 222320Z AUTO 07005KT 040V100 9999 OVC017 M06/M08 Q1019
EFLP 222250Z AUTO 06006KT 9999 OVC017 M06/M08 Q1019
EFLP 222220Z AUTO 05005KT 020V090 9999 OVC014 M06/M08 Q1019
EFLP 222150Z AUTO 07006KT 030V100 9999 OVC011 M06/M08 Q1019
EFLP 222120Z AUTO 08005KT 020V120 9999 OVC008 M07/M08 Q1019
EFLP 222050Z AUTO 08007KT 050V120 9999 OVC008 M07/M08 Q1019
EFLP 222020Z AUTO 07007KT 030V130 9999 OVC008 M07/M08 Q1019
EFLP 221950Z AUTO 07009KT 050V110 9999 OVC006 M07/M08 Q1018
EFLP 221920Z AUTO 07007KT 040V110 9999 OVC006 M07/M08 Q1018
EFLP 221850Z AUTO 06009KT 9999 OVC005 M07/M08 Q1019
EFLP 221820Z AUTO 08004KT 040V130 9999 OVC005 M06/M07 Q1018
EFLP 221750Z AUTO 06008KT 9999 OVC004 M06/M07 Q1018
EFLP 221720Z AUTO 06008KT 9999 OVC005 M06/M07 Q1018
EFLP 221650Z AUTO 07008KT 040V110 9999 OVC005 M06/M07 Q1018
EFLP 221620Z AUTO 07007KT 040V100 9999 OVC005 M05/M06 Q1018
EFLP 221550Z AUTO 07008KT 040V110 9999 OVC005 M05/M06 Q1018
EFLP 221520Z AUTO 07007KT 040V100 9999 OVC006 M05/M05 Q1017
EFLP 221450Z AUTO 07006KT 9999 OVC006 M04/M05 Q1017
EFLP 221420Z AUTO 06008KT 9999 OVC007 M04/M05 Q1017